sensor_id;sensor_type;location;lat;lon;timestamp;temperature;humidity
41926;DHT22;27615;51.826;5.692;2022-10-16T00:00:34;13.00;99.90
41926;DHT22;27615;51.826;5.692;2022-10-16T00:03:00;13.00;99.90
41926;DHT22;27615;51.826;5.692;2022-10-16T00:05:26;12.90;99.90
41926;DHT22;27615;51.826;5.692;2022-10-16T00:07:52;12.90;99.90
41926;DHT22;27615;51.826;5.692;2022-10-16T00:10:17;12.90;99.90
41926;DHT22;27615;51.826;5.692;2022-10-16T00:12:43;12.90;99.90
41926;DHT22;27615;51.826;5.692;2022-10-16T00:15:09;12.90;99.90
41926;DHT22;27615;51.826;5.692;2022-10-16T00:17:34;12.90;99.90
41926;DHT22;27615;51.826;5.692;2022-10-16T00:20:00;12.80;99.90
41926;DHT22;27615;51.826;5.692;2022-10-16T00:22:25;12.80;99.90
41926;DHT22;27615;51.826;5.692;2022-10-16T00:24:51;12.80;99.90
41926;DHT22;27615;51.826;5.692;2022-10-16T00:27:16;12.80;99.90
41926;DHT22;27615;51.826;5.692;2022-10-16T00:29:42;12.80;99.90
41926;DHT22;27615;51.826;5.692;2022-10-16T00:32:08;12.80;99.90
41926;DHT22;27615;51.826;5.692;2022-10-16T00:34:34;12.80;99.90
41926;DHT22;27615;51.826;5.692;2022-10-16T00:37:00;12.70;99.90
41926;DHT22;27615;51.826;5.692;2022-10-16T00:39:25;12.70;99.90
41926;DHT22;27615;51.826;5.692;2022-10-16T00:41:51;12.70;99.90
41926;DHT22;27615;51.826;5.692;2022-10-16T00:44:47;12.70;99.90
41926;DHT22;27615;51.826;5.692;2022-10-16T00:47:34;12.70;99.90
41926;DHT22;27615;51.826;5.692;2022-10-16T00:52:32;12.60;99.90
41926;DHT22;27615;51.826;5.692;2022-10-16T00:54:58;12.60;99.90
41926;DHT22;27615;51.826;5.692;2022-10-16T00:57:24;12.60;99.90
41926;DHT22;27615;51.826;5.692;2022-10-16T00:59:50;12.60;99.90
41926;DHT22;27615;51.826;5.692;2022-10-16T01:02:16;12.60;99.90
41926;DHT22;27615;51.826;5.692;2022-10-16T01:04:48;12.70;99.90
41926;DHT22;27615;51.826;5.692;2022-10-16T01:07:45;12.70;99.90
41926;DHT22;27615;51.826;5.692;2022-10-16T01:12:53;12.60;99.90
41926;DHT22;27615;51.826;5.692;2022-10-16T01:18:05;12.60;99.90
41926;DHT22;27615;51.826;5.692;2022-10-16T01:20:38;12.60;99.90
41926;DHT22;27615;51.826;5.692;2022-10-16T01:23:19;12.70;99.90
41926;DHT22;27615;51.826;5.692;2022-10-16T01:26:24;12.70;99.90
41926;DHT22;27615;51.826;5.692;2022-10-16T01:29:41;12.60;99.90
41926;DHT22;27615;51.826;5.692;2022-10-16T01:31:45;12.60;99.90
41926;DHT22;27615;51.826;5.692;2022-10-16T01:34:15;12.60;99.90
41926;DHT22;27615;51.826;5.692;2022-10-16T01:36:53;12.70;99.90
41926;DHT22;27615;51.826;5.692;2022-10-16T01:39:23;12.70;99.90
41926;DHT22;27615;51.826;5.692;2022-10-16T01:41:55;12.70;99.90
41926;DHT22;27615;51.826;5.692;2022-10-16T01:44:28;12.70;99.90
41926;DHT22;27615;51.826;5.692;2022-10-16T01:46:55;12.70;99.90
41926;DHT22;27615;51.826;5.692;2022-10-16T01:49:23;12.80;99.90
41926;DHT22;27615;51.826;5.692;2022-10-16T01:51:53;12.80;99.90
41926;DHT22;27615;51.826;5.692;2022-10-16T01:54:20;12.90;99.90
41926;DHT22;27615;51.826;5.692;2022-10-16T01:56:48;12.90;99.90
41926;DHT22;27615;51.826;5.692;2022-10-16T01:59:18;12.90;99.90
41926;DHT22;27615;51.826;5.692;2022-10-16T02:01:47;12.90;99.90
41926;DHT22;27615;51.826;5.692;2022-10-16T02:04:24;12.90;99.90
41926;DHT22;27615;51.826;5.692;2022-10-16T02:06:52;13.00;99.90
41926;DHT22;27615;51.826;5.692;2022-10-16T02:09:18;13.00;99.90
41926;DHT22;27615;51.826;5.692;2022-10-16T02:11:44;13.00;99.90
41926;DHT22;27615;51.826;5.692;2022-10-16T02:14:10;13.00;99.90
41926;DHT22;27615;51.826;5.692;2022-10-16T02:16:39;13.00;99.90
41926;DHT22;27615;51.826;5.692;2022-10-16T02:19:05;13.00;99.90
41926;DHT22;27615;51.826;5.692;2022-10-16T02:21:44;13.00;99.90
41926;DHT22;27615;51.826;5.692;2022-10-16T02:24:16;13.10;99.90
41926;DHT22;27615;51.826;5.692;2022-10-16T02:27:02;13.00;99.90
41926;DHT22;27615;51.826;5.692;2022-10-16T02:29:29;13.10;99.90
41926;DHT22;27615;51.826;5.692;2022-10-16T02:32:00;13.00;99.90
41926;DHT22;27615;51.826;5.692;2022-10-16T02:34:28;13.00;99.90
41926;DHT22;27615;51.826;5.692;2022-10-16T02:36:56;13.00;99.90
41926;DHT22;27615;51.826;5.692;2022-10-16T02:39:22;13.00;99.90
41926;DHT22;27615;51.826;5.692;2022-10-16T02:41:48;13.00;99.90
41926;DHT22;27615;51.826;5.692;2022-10-16T02:44:13;13.00;99.90
41926;DHT22;27615;51.826;5.692;2022-10-16T02:46:39;13.00;99.90
41926;DHT22;27615;51.826;5.692;2022-10-16T02:49:04;13.00;99.90
41926;DHT22;27615;51.826;5.692;2022-10-16T02:51:30;13.00;99.90
41926;DHT22;27615;51.826;5.692;2022-10-16T02:53:55;13.00;99.90
41926;DHT22;27615;51.826;5.692;2022-10-16T02:56:21;13.00;99.90
41926;DHT22;27615;51.826;5.692;2022-10-16T02:58:46;13.00;99.90
41926;DHT22;27615;51.826;5.692;2022-10-16T03:01:12;13.00;99.90
41926;DHT22;27615;51.826;5.692;2022-10-16T03:03:39;13.00;99.90
41926;DHT22;27615;51.826;5.692;2022-10-16T03:06:05;12.90;99.90
41926;DHT22;27615;51.826;5.692;2022-10-16T03:08:31;12.90;99.90
41926;DHT22;27615;51.826;5.692;2022-10-16T03:10:56;12.90;99.90
41926;DHT22;27615;51.826;5.692;2022-10-16T03:13:22;12.90;99.90
41926;DHT22;27615;51.826;5.692;2022-10-16T03:15:47;12.90;99.90
41926;DHT22;27615;51.826;5.692;2022-10-16T03:18:13;12.80;99.90
41926;DHT22;27615;51.826;5.692;2022-10-16T03:20:38;12.80;99.90
41926;DHT22;27615;51.826;5.692;2022-10-16T03:23:04;12.80;99.90
41926;DHT22;27615;51.826;5.692;2022-10-16T03:25:29;12.80;99.90
41926;DHT22;27615;51.826;5.692;2022-10-16T03:27:55;12.80;99.90
41926;DHT22;27615;51.826;5.692;2022-10-16T03:30:20;12.80;99.90
41926;DHT22;27615;51.826;5.692;2022-10-16T03:32:46;12.80;99.90
41926;DHT22;27615;51.826;5.692;2022-10-16T03:35:12;12.80;99.90
41926;DHT22;27615;51.826;5.692;2022-10-16T03:37:38;12.80;99.90
41926;DHT22;27615;51.826;5.692;2022-10-16T03:40:04;12.80;99.90
41926;DHT22;27615;51.826;5.692;2022-10-16T03:42:30;12.80;99.90
41926;DHT22;27615;51.826;5.692;2022-10-16T03:44:56;12.80;99.90
41926;DHT22;27615;51.826;5.692;2022-10-16T03:47:21;12.80;99.90
41926;DHT22;27615;51.826;5.692;2022-10-16T03:49:49;12.80;99.90
41926;DHT22;27615;51.826;5.692;2022-10-16T03:52:14;12.80;99.90
41926;DHT22;27615;51.826;5.692;2022-10-16T03:54:40;12.80;99.90
41926;DHT22;27615;51.826;5.692;2022-10-16T03:57:05;12.70;99.90
41926;DHT22;27615;51.826;5.692;2022-10-16T03:59:31;12.70;99.90
41926;DHT22;27615;51.826;5.692;2022-10-16T04:01:56;12.70;99.90
41926;DHT22;27615;51.826;5.692;2022-10-16T04:04:22;12.70;99.90
41926;DHT22;27615;51.826;5.692;2022-10-16T04:06:47;12.70;99.90
41926;DHT22;27615;51.826;5.692;2022-10-16T04:09:13;12.60;99.90
41926;DHT22;27615;51.826;5.692;2022-10-16T04:11:38;12.70;99.90
41926;DHT22;27615;51.826;5.692;2022-10-16T04:14:04;12.70;99.90
41926;DHT22;27615;51.826;5.692;2022-10-16T04:16:29;12.70;99.90
41926;DHT22;27615;51.826;5.692;2022-10-16T04:18:55;12.70;99.90
41926;DHT22;27615;51.826;5.692;2022-10-16T04:21:20;12.70;99.90
41926;DHT22;27615;51.826;5.692;2022-10-16T04:23:46;12.70;99.90
41926;DHT22;27615;51.826;5.692;2022-10-16T04:26:12;12.70;99.90
41926;DHT22;27615;51.826;5.692;2022-10-16T04:28:37;12.70;99.90
41926;DHT22;27615;51.826;5.692;2022-10-16T04:31:06;12.60;99.90
41926;DHT22;27615;51.826;5.692;2022-10-16T04:33:33;12.60;99.90
41926;DHT22;27615;51.826;5.692;2022-10-16T04:36:00;12.60;99.90
41926;DHT22;27615;51.826;5.692;2022-10-16T04:38:25;12.60;99.90
41926;DHT22;27615;51.826;5.692;2022-10-16T04:40:51;12.60;99.90
41926;DHT22;27615;51.826;5.692;2022-10-16T04:43:17;12.60;99.90
41926;DHT22;27615;51.826;5.692;2022-10-16T04:45:43;12.60;99.90
41926;DHT22;27615;51.826;5.692;2022-10-16T04:48:08;12.50;99.90
41926;DHT22;27615;51.826;5.692;2022-10-16T04:50:34;12.50;99.90
41926;DHT22;27615;51.826;5.692;2022-10-16T04:52:59;12.50;99.90
41926;DHT22;27615;51.826;5.692;2022-10-16T04:55:25;12.50;99.90
41926;DHT22;27615;51.826;5.692;2022-10-16T04:57:51;12.50;99.90
41926;DHT22;27615;51.826;5.692;2022-10-16T05:00:16;12.50;99.90
41926;DHT22;27615;51.826;5.692;2022-10-16T05:02:42;12.50;99.90
41926;DHT22;27615;51.826;5.692;2022-10-16T05:05:07;12.50;99.90
41926;DHT22;27615;51.826;5.692;2022-10-16T05:07:33;12.50;99.90
41926;DHT22;27615;51.826;5.692;2022-10-16T05:09:58;12.50;99.90
41926;DHT22;27615;51.826;5.692;2022-10-16T05:12:24;12.50;99.90
41926;DHT22;27615;51.826;5.692;2022-10-16T05:14:49;12.50;99.90
41926;DHT22;27615;51.826;5.692;2022-10-16T05:17:15;12.50;99.90
41926;DHT22;27615;51.826;5.692;2022-10-16T05:19:40;12.40;99.90
41926;DHT22;27615;51.826;5.692;2022-10-16T05:22:06;12.40;99.90
41926;DHT22;27615;51.826;5.692;2022-10-16T05:24:31;12.30;99.90
41926;DHT22;27615;51.826;5.692;2022-10-16T05:26:57;12.30;99.90
41926;DHT22;27615;51.826;5.692;2022-10-16T05:29:22;12.20;99.90
41926;DHT22;27615;51.826;5.692;2022-10-16T05:31:52;12.20;99.90
41926;DHT22;27615;51.826;5.692;2022-10-16T05:34:18;12.20;99.90
41926;DHT22;27615;51.826;5.692;2022-10-16T05:36:44;12.20;99.90
41926;DHT22;27615;51.826;5.692;2022-10-16T05:39:10;12.30;99.90
41926;DHT22;27615;51.826;5.692;2022-10-16T05:41:36;12.20;99.90
41926;DHT22;27615;51.826;5.692;2022-10-16T05:44:04;12.20;99.90
41926;DHT22;27615;51.826;5.692;2022-10-16T05:46:31;12.30;99.90
41926;DHT22;27615;51.826;5.692;2022-10-16T05:48:56;12.20;99.90
41926;DHT22;27615;51.826;5.692;2022-10-16T05:51:22;12.20;99.90
41926;DHT22;27615;51.826;5.692;2022-10-16T05:53:47;12.30;99.90
41926;DHT22;27615;51.826;5.692;2022-10-16T05:56:13;12.20;99.90
41926;DHT22;27615;51.826;5.692;2022-10-16T05:58:39;12.20;99.90
41926;DHT22;27615;51.826;5.692;2022-10-16T06:01:14;12.20;99.90
41926;DHT22;27615;51.826;5.692;2022-10-16T06:03:40;12.20;99.90
41926;DHT22;27615;51.826;5.692;2022-10-16T06:06:10;12.20;99.90
41926;DHT22;27615;51.826;5.692;2022-10-16T06:08:36;12.20;99.90
41926;DHT22;27615;51.826;5.692;2022-10-16T06:11:09;12.10;99.90
41926;DHT22;27615;51.826;5.692;2022-10-16T06:13:35;12.10;99.90
41926;DHT22;27615;51.826;5.692;2022-10-16T06:16:01;12.10;99.90
41926;DHT22;27615;51.826;5.692;2022-10-16T06:18:27;12.00;99.90
41926;DHT22;27615;51.826;5.692;2022-10-16T06:20:54;12.10;99.90
41926;DHT22;27615;51.826;5.692;2022-10-16T06:23:20;12.10;99.90
41926;DHT22;27615;51.826;5.692;2022-10-16T06:25:45;12.10;99.90
41926;DHT22;27615;51.826;5.692;2022-10-16T06:28:11;12.10;99.90
41926;DHT22;27615;51.826;5.692;2022-10-16T06:30:36;12.10;99.90
41926;DHT22;27615;51.826;5.692;2022-10-16T06:33:02;12.10;99.90
41926;DHT22;27615;51.826;5.692;2022-10-16T06:35:27;12.10;99.90
41926;DHT22;27615;51.826;5.692;2022-10-16T06:37:54;12.20;99.90
41926;DHT22;27615;51.826;5.692;2022-10-16T06:40:20;12.20;99.90
41926;DHT22;27615;51.826;5.692;2022-10-16T06:42:45;12.20;99.90
41926;DHT22;27615;51.826;5.692;2022-10-16T06:45:11;12.30;99.90
41926;DHT22;27615;51.826;5.692;2022-10-16T06:47:37;12.40;99.90
41926;DHT22;27615;51.826;5.692;2022-10-16T06:50:04;12.40;99.90
41926;DHT22;27615;51.826;5.692;2022-10-16T06:52:32;12.50;99.90
41926;DHT22;27615;51.826;5.692;2022-10-16T06:54:57;12.50;99.90
41926;DHT22;27615;51.826;5.692;2022-10-16T06:57:23;12.60;99.90
41926;DHT22;27615;51.826;5.692;2022-10-16T06:59:48;12.60;99.90
41926;DHT22;27615;51.826;5.692;2022-10-16T07:02:14;12.70;99.90
41926;DHT22;27615;51.826;5.692;2022-10-16T07:04:39;12.80;99.90
41926;DHT22;27615;51.826;5.692;2022-10-16T07:07:05;12.90;99.90
41926;DHT22;27615;51.826;5.692;2022-10-16T07:09:30;12.90;99.90
41926;DHT22;27615;51.826;5.692;2022-10-16T07:11:56;13.00;99.90
41926;DHT22;27615;51.826;5.692;2022-10-16T07:14:21;13.00;99.90
41926;DHT22;27615;51.826;5.692;2022-10-16T07:16:48;13.10;99.90
41926;DHT22;27615;51.826;5.692;2022-10-16T07:19:14;13.10;99.90
41926;DHT22;27615;51.826;5.692;2022-10-16T07:21:41;13.10;99.90
41926;DHT22;27615;51.826;5.692;2022-10-16T07:24:18;13.20;99.90
41926;DHT22;27615;51.826;5.692;2022-10-16T07:27:28;13.30;99.90
41926;DHT22;27615;51.826;5.692;2022-10-16T07:29:57;13.30;99.90
41926;DHT22;27615;51.826;5.692;2022-10-16T07:35:27;13.40;99.90
41926;DHT22;27615;51.826;5.692;2022-10-16T07:38:13;13.50;99.90
41926;DHT22;27615;51.826;5.692;2022-10-16T07:51:01;13.80;99.90
41926;DHT22;27615;51.826;5.692;2022-10-16T07:53:28;13.80;99.90
41926;DHT22;27615;51.826;5.692;2022-10-16T07:59:14;13.90;99.90
41926;DHT22;27615;51.826;5.692;2022-10-16T08:01:40;13.90;99.90
41926;DHT22;27615;51.826;5.692;2022-10-16T08:04:09;14.00;99.90
41926;DHT22;27615;51.826;5.692;2022-10-16T08:06:36;14.10;99.90
41926;DHT22;27615;51.826;5.692;2022-10-16T08:09:18;14.10;99.90
41926;DHT22;27615;51.826;5.692;2022-10-16T08:11:44;14.20;99.90
41926;DHT22;27615;51.826;5.692;2022-10-16T08:14:10;14.20;99.90
41926;DHT22;27615;51.826;5.692;2022-10-16T08:16:35;14.30;99.90
41926;DHT22;27615;51.826;5.692;2022-10-16T08:19:01;14.30;99.90
41926;DHT22;27615;51.826;5.692;2022-10-16T08:21:26;14.40;99.90
41926;DHT22;27615;51.826;5.692;2022-10-16T08:23:53;14.40;99.90
41926;DHT22;27615;51.826;5.692;2022-10-16T08:26:19;14.40;99.90
41926;DHT22;27615;51.826;5.692;2022-10-16T08:28:44;14.50;99.90
41926;DHT22;27615;51.826;5.692;2022-10-16T08:31:12;14.60;99.90
41926;DHT22;27615;51.826;5.692;2022-10-16T08:33:41;14.60;99.90
41926;DHT22;27615;51.826;5.692;2022-10-16T08:36:07;14.70;99.90
41926;DHT22;27615;51.826;5.692;2022-10-16T08:38:33;14.70;99.90
41926;DHT22;27615;51.826;5.692;2022-10-16T08:49:57;14.90;99.90
41926;DHT22;27615;51.826;5.692;2022-10-16T08:52:27;15.00;99.90
41926;DHT22;27615;51.826;5.692;2022-10-16T08:54:55;15.10;99.90
41926;DHT22;27615;51.826;5.692;2022-10-16T08:57:22;15.10;99.90
41926;DHT22;27615;51.826;5.692;2022-10-16T08:59:48;15.20;99.90
41926;DHT22;27615;51.826;5.692;2022-10-16T09:02:32;15.30;99.90
41926;DHT22;27615;51.826;5.692;2022-10-16T09:07:53;15.40;99.90
41926;DHT22;27615;51.826;5.692;2022-10-16T09:13:29;15.60;99.90
41926;DHT22;27615;51.826;5.692;2022-10-16T09:16:05;15.70;99.90
41926;DHT22;27615;51.826;5.692;2022-10-16T09:19:09;15.80;99.90
41926;DHT22;27615;51.826;5.692;2022-10-16T09:21:44;16.00;99.90
41926;DHT22;27615;51.826;5.692;2022-10-16T09:24:19;16.10;99.90
41926;DHT22;27615;51.826;5.692;2022-10-16T09:26:45;16.10;99.90
41926;DHT22;27615;51.826;5.692;2022-10-16T09:29:13;16.20;99.90
41926;DHT22;27615;51.826;5.692;2022-10-16T09:31:39;16.20;99.90
41926;DHT22;27615;51.826;5.692;2022-10-16T09:34:05;16.30;99.90
41926;DHT22;27615;51.826;5.692;2022-10-16T09:36:40;16.50;99.90
41926;DHT22;27615;51.826;5.692;2022-10-16T09:39:09;16.60;99.90
41926;DHT22;27615;51.826;5.692;2022-10-16T09:41:38;16.70;99.90
41926;DHT22;27615;51.826;5.692;2022-10-16T09:44:13;16.90;99.90
41926;DHT22;27615;51.826;5.692;2022-10-16T09:46:40;17.10;99.90
41926;DHT22;27615;51.826;5.692;2022-10-16T09:49:24;17.30;99.90
41926;DHT22;27615;51.826;5.692;2022-10-16T09:51:50;17.50;99.90
41926;DHT22;27615;51.826;5.692;2022-10-16T09:54:19;17.70;99.90
41926;DHT22;27615;51.826;5.692;2022-10-16T09:56:45;17.80;99.80
41926;DHT22;27615;51.826;5.692;2022-10-16T09:59:19;17.90;99.20
41926;DHT22;27615;51.826;5.692;2022-10-16T10:01:46;18.20;99.20
41926;DHT22;27615;51.826;5.692;2022-10-16T10:04:12;18.50;98.90
41926;DHT22;27615;51.826;5.692;2022-10-16T10:06:44;18.90;98.60
41926;DHT22;27615;51.826;5.692;2022-10-16T10:11:57;22.30;94.90
41926;DHT22;27615;51.826;5.692;2022-10-16T10:14:35;24.90;90.10
41926;DHT22;27615;51.826;5.692;2022-10-16T10:19:57;29.30;70.30
41926;DHT22;27615;51.826;5.692;2022-10-16T10:27:57;33.40;54.60
41926;DHT22;27615;51.826;5.692;2022-10-16T10:36:12;36.60;46.10
41926;DHT22;27615;51.826;5.692;2022-10-16T10:38:57;38.30;43.70
41926;DHT22;27615;51.826;5.692;2022-10-16T10:41:35;37.80;41.60
41926;DHT22;27615;51.826;5.692;2022-10-16T10:44:21;38.30;41.50
41926;DHT22;27615;51.826;5.692;2022-10-16T10:46:53;39.70;40.50
41926;DHT22;27615;51.826;5.692;2022-10-16T10:54:45;42.10;37.20
41926;DHT22;27615;51.826;5.692;2022-10-16T10:57:28;42.00;37.10
41926;DHT22;27615;51.826;5.692;2022-10-16T11:02:40;41.80;35.50
41926;DHT22;27615;51.826;5.692;2022-10-16T11:07:55;41.40;35.50
41926;DHT22;27615;51.826;5.692;2022-10-16T11:10:26;39.50;35.20
41926;DHT22;27615;51.826;5.692;2022-10-16T11:15:42;39.80;35.80
41926;DHT22;27615;51.826;5.692;2022-10-16T11:18:17;40.80;34.80
41926;DHT22;27615;51.826;5.692;2022-10-16T11:20:59;39.80;34.80
41926;DHT22;27615;51.826;5.692;2022-10-16T11:23:40;37.90;35.20
41926;DHT22;27615;51.826;5.692;2022-10-16T11:26:14;35.80;37.10
41926;DHT22;27615;51.826;5.692;2022-10-16T11:29:00;36.10;38.70
41926;DHT22;27615;51.826;5.692;2022-10-16T11:31:57;37.90;37.60
41926;DHT22;27615;51.826;5.692;2022-10-16T11:34:31;39.50;36.60
41926;DHT22;27615;51.826;5.692;2022-10-16T11:37:12;40.70;35.40
41926;DHT22;27615;51.826;5.692;2022-10-16T11:39:40;41.60;34.30
41926;DHT22;27615;51.826;5.692;2022-10-16T11:42:16;42.20;33.80
41926;DHT22;27615;51.826;5.692;2022-10-16T11:44:51;42.70;33.60
41926;DHT22;27615;51.826;5.692;2022-10-16T11:47:45;42.20;33.40
41926;DHT22;27615;51.826;5.692;2022-10-16T11:55:40;43.40;33.30
41926;DHT22;27615;51.826;5.692;2022-10-16T12:04:14;43.20;31.30
41926;DHT22;27615;51.826;5.692;2022-10-16T12:09:26;41.40;33.30
41926;DHT22;27615;51.826;5.692;2022-10-16T12:11:53;41.70;34.10
41926;DHT22;27615;51.826;5.692;2022-10-16T12:17:23;42.60;32.70
41926;DHT22;27615;51.826;5.692;2022-10-16T12:20:21;42.30;32.00
41926;DHT22;27615;51.826;5.692;2022-10-16T12:22:56;41.00;32.20
41926;DHT22;27615;51.826;5.692;2022-10-16T12:28:01;36.80;34.10
41926;DHT22;27615;51.826;5.692;2022-10-16T12:30:30;35.90;35.50
41926;DHT22;27615;51.826;5.692;2022-10-16T12:32:58;36.50;35.70
41926;DHT22;27615;51.826;5.692;2022-10-16T12:35:28;36.50;35.10
41926;DHT22;27615;51.826;5.692;2022-10-16T12:38:12;35.60;35.50
41926;DHT22;27615;51.826;5.692;2022-10-16T12:40:39;34.90;36.40
41926;DHT22;27615;51.826;5.692;2022-10-16T12:43:58;34.00;37.40
41926;DHT22;27615;51.826;5.692;2022-10-16T12:46:00;33.20;38.10
41926;DHT22;27615;51.826;5.692;2022-10-16T12:48:26;32.20;39.20
41926;DHT22;27615;51.826;5.692;2022-10-16T12:50:54;31.60;39.80
41926;DHT22;27615;51.826;5.692;2022-10-16T12:53:22;31.40;39.90
41926;DHT22;27615;51.826;5.692;2022-10-16T12:56:00;31.60;40.20
41926;DHT22;27615;51.826;5.692;2022-10-16T13:01:34;31.30;40.00
41926;DHT22;27615;51.826;5.692;2022-10-16T13:05:01;30.60;40.60
41926;DHT22;27615;51.826;5.692;2022-10-16T13:13:01;31.40;40.90
41926;DHT22;27615;51.826;5.692;2022-10-16T13:18:22;33.90;39.30
41926;DHT22;27615;51.826;5.692;2022-10-16T13:20:55;34.10;38.70
41926;DHT22;27615;51.826;5.692;2022-10-16T13:26:26;34.40;38.50
41926;DHT22;27615;51.826;5.692;2022-10-16T13:28:59;34.90;37.70
41926;DHT22;27615;51.826;5.692;2022-10-16T13:31:25;34.70;37.30
41926;DHT22;27615;51.826;5.692;2022-10-16T13:33:53;34.10;37.70
41926;DHT22;27615;51.826;5.692;2022-10-16T13:36:35;34.10;38.30
41926;DHT22;27615;51.826;5.692;2022-10-16T13:39:14;33.70;38.50
41926;DHT22;27615;51.826;5.692;2022-10-16T13:41:40;33.70;39.00
41926;DHT22;27615;51.826;5.692;2022-10-16T13:44:17;34.00;38.80
41926;DHT22;27615;51.826;5.692;2022-10-16T13:46:44;34.70;38.50
41926;DHT22;27615;51.826;5.692;2022-10-16T13:49:15;35.30;38.30
41926;DHT22;27615;51.826;5.692;2022-10-16T13:51:41;35.90;37.80
41926;DHT22;27615;51.826;5.692;2022-10-16T13:54:09;36.10;37.30
41926;DHT22;27615;51.826;5.692;2022-10-16T13:56:38;36.10;37.20
41926;DHT22;27615;51.826;5.692;2022-10-16T13:59:06;36.10;37.30
41926;DHT22;27615;51.826;5.692;2022-10-16T14:01:41;36.50;37.20
41926;DHT22;27615;51.826;5.692;2022-10-16T14:04:09;36.70;37.20
41926;DHT22;27615;51.826;5.692;2022-10-16T14:06:36;36.80;36.80
41926;DHT22;27615;51.826;5.692;2022-10-16T14:11:51;36.60;36.70
41926;DHT22;27615;51.826;5.692;2022-10-16T14:14:19;36.60;36.80
41926;DHT22;27615;51.826;5.692;2022-10-16T14:16:45;36.40;36.70
41926;DHT22;27615;51.826;5.692;2022-10-16T14:19:23;36.30;36.70
41926;DHT22;27615;51.826;5.692;2022-10-16T14:21:51;35.90;36.80
41926;DHT22;27615;51.826;5.692;2022-10-16T14:24:26;34.10;37.40
41926;DHT22;27615;51.826;5.692;2022-10-16T14:26:53;33.20;38.60
41926;DHT22;27615;51.826;5.692;2022-10-16T14:29:21;33.00;39.20
41926;DHT22;27615;51.826;5.692;2022-10-16T14:32:05;32.80;39.20
41926;DHT22;27615;51.826;5.692;2022-10-16T14:34:34;32.50;39.30
41926;DHT22;27615;51.826;5.692;2022-10-16T14:39:42;30.70;41.40
41926;DHT22;27615;51.826;5.692;2022-10-16T14:42:16;29.30;43.20
41926;DHT22;27615;51.826;5.692;2022-10-16T14:44:43;28.20;45.00
41926;DHT22;27615;51.826;5.692;2022-10-16T14:47:15;27.00;46.50
41926;DHT22;27615;51.826;5.692;2022-10-16T14:49:42;26.20;48.30
41926;DHT22;27615;51.826;5.692;2022-10-16T14:52:10;25.40;49.60
41926;DHT22;27615;51.826;5.692;2022-10-16T14:54:36;25.30;50.20
41926;DHT22;27615;51.826;5.692;2022-10-16T14:57:02;25.10;50.30
41926;DHT22;27615;51.826;5.692;2022-10-16T14:59:39;25.10;50.50
41926;DHT22;27615;51.826;5.692;2022-10-16T15:04:39;24.30;52.40
41926;DHT22;27615;51.826;5.692;2022-10-16T15:07:06;24.00;53.40
41926;DHT22;27615;51.826;5.692;2022-10-16T15:09:32;23.90;53.70
41926;DHT22;27615;51.826;5.692;2022-10-16T15:11:57;23.60;54.90
41926;DHT22;27615;51.826;5.692;2022-10-16T15:14:23;23.30;56.10
41926;DHT22;27615;51.826;5.692;2022-10-16T15:16:48;23.00;56.50
41926;DHT22;27615;51.826;5.692;2022-10-16T15:19:14;22.80;56.90
41926;DHT22;27615;51.826;5.692;2022-10-16T15:21:39;22.90;56.60
41926;DHT22;27615;51.826;5.692;2022-10-16T15:24:12;23.10;56.10
41926;DHT22;27615;51.826;5.692;2022-10-16T15:26:38;23.40;55.90
41926;DHT22;27615;51.826;5.692;2022-10-16T15:29:03;23.50;55.70
41926;DHT22;27615;51.826;5.692;2022-10-16T15:31:29;23.60;55.80
41926;DHT22;27615;51.826;5.692;2022-10-16T15:33:55;23.50;56.10
41926;DHT22;27615;51.826;5.692;2022-10-16T15:36:28;23.40;56.50
41926;DHT22;27615;51.826;5.692;2022-10-16T15:38:53;23.40;56.90
41926;DHT22;27615;51.826;5.692;2022-10-16T15:41:20;23.20;57.30
41926;DHT22;27615;51.826;5.692;2022-10-16T15:43:48;23.10;57.80
41926;DHT22;27615;51.826;5.692;2022-10-16T15:46:14;23.00;58.30
41926;DHT22;27615;51.826;5.692;2022-10-16T15:48:40;22.90;58.60
41926;DHT22;27615;51.826;5.692;2022-10-16T15:51:07;22.80;59.00
41926;DHT22;27615;51.826;5.692;2022-10-16T15:53:32;22.70;59.50
41926;DHT22;27615;51.826;5.692;2022-10-16T15:56:02;22.50;59.90
41926;DHT22;27615;51.826;5.692;2022-10-16T15:58:28;22.40;60.30
41926;DHT22;27615;51.826;5.692;2022-10-16T16:00:55;22.30;60.60
41926;DHT22;27615;51.826;5.692;2022-10-16T16:03:21;22.10;61.00
41926;DHT22;27615;51.826;5.692;2022-10-16T16:05:46;22.00;61.50
41926;DHT22;27615;51.826;5.692;2022-10-16T16:08:12;21.90;61.70
41926;DHT22;27615;51.826;5.692;2022-10-16T16:10:37;21.90;61.80
41926;DHT22;27615;51.826;5.692;2022-10-16T16:13:03;21.80;61.90
41926;DHT22;27615;51.826;5.692;2022-10-16T16:15:28;21.60;62.00
41926;DHT22;27615;51.826;5.692;2022-10-16T16:17:54;21.60;62.20
41926;DHT22;27615;51.826;5.692;2022-10-16T16:20:19;21.50;62.20
41926;DHT22;27615;51.826;5.692;2022-10-16T16:22:45;21.40;62.30
41926;DHT22;27615;51.826;5.692;2022-10-16T16:25:10;21.40;62.50
41926;DHT22;27615;51.826;5.692;2022-10-16T16:27:36;21.20;62.80
41926;DHT22;27615;51.826;5.692;2022-10-16T16:30:05;21.10;63.30
41926;DHT22;27615;51.826;5.692;2022-10-16T16:32:32;21.00;63.60
41926;DHT22;27615;51.826;5.692;2022-10-16T16:34:58;21.00;63.80
41926;DHT22;27615;51.826;5.692;2022-10-16T16:37:23;20.90;63.90
41926;DHT22;27615;51.826;5.692;2022-10-16T16:39:49;20.80;64.10
41926;DHT22;27615;51.826;5.692;2022-10-16T16:42:15;20.70;64.40
41926;DHT22;27615;51.826;5.692;2022-10-16T16:44:41;20.70;65.50
41926;DHT22;27615;51.826;5.692;2022-10-16T16:47:06;20.60;65.10
41926;DHT22;27615;51.826;5.692;2022-10-16T16:49:32;20.50;66.10
41926;DHT22;27615;51.826;5.692;2022-10-16T16:51:58;20.40;65.80
41926;DHT22;27615;51.826;5.692;2022-10-16T16:54:23;20.30;66.90
41926;DHT22;27615;51.826;5.692;2022-10-16T16:56:49;20.20;66.50
41926;DHT22;27615;51.826;5.692;2022-10-16T16:59:17;20.10;67.00
41926;DHT22;27615;51.826;5.692;2022-10-16T17:01:45;20.00;67.50
41926;DHT22;27615;51.826;5.692;2022-10-16T17:04:10;19.90;67.90
41926;DHT22;27615;51.826;5.692;2022-10-16T17:06:37;19.80;68.30
41926;DHT22;27615;51.826;5.692;2022-10-16T17:09:04;19.80;68.70
41926;DHT22;27615;51.826;5.692;2022-10-16T17:11:30;19.70;69.00
41926;DHT22;27615;51.826;5.692;2022-10-16T17:13:57;19.70;69.30
41926;DHT22;27615;51.826;5.692;2022-10-16T17:16:27;19.60;69.50
41926;DHT22;27615;51.826;5.692;2022-10-16T17:18:53;19.50;69.80
41926;DHT22;27615;51.826;5.692;2022-10-16T17:21:19;19.50;70.00
41926;DHT22;27615;51.826;5.692;2022-10-16T17:23:45;19.40;70.20
41926;DHT22;27615;51.826;5.692;2022-10-16T17:26:13;19.40;70.40
41926;DHT22;27615;51.826;5.692;2022-10-16T17:28:40;19.30;70.50
41926;DHT22;27615;51.826;5.692;2022-10-16T17:31:28;19.20;70.70
41926;DHT22;27615;51.826;5.692;2022-10-16T17:33:54;19.20;71.10